sensor_id;sensor_type;location;lat;lon;timestamp;temperature;humidity
43651;DHT22;29247;50.944;5.382;2022-08-03T00:01:54;22.80;70.80
43651;DHT22;29247;50.944;5.382;2022-08-03T00:04:20;22.80;70.80
43651;DHT22;29247;50.944;5.382;2022-08-03T00:06:48;22.70;70.80
43651;DHT22;29247;50.944;5.382;2022-08-03T00:09:13;22.70;70.70
43651;DHT22;29247;50.944;5.382;2022-08-03T00:11:41;22.60;70.60
43651;DHT22;29247;50.944;5.382;2022-08-03T00:14:08;22.60;70.90
43651;DHT22;29247;50.944;5.382;2022-08-03T00:16:34;22.60;71.20
43651;DHT22;29247;50.944;5.382;2022-08-03T00:19:00;22.60;71.40
43651;DHT22;29247;50.944;5.382;2022-08-03T00:21:26;22.60;71.60
43651;DHT22;29247;50.944;5.382;2022-08-03T00:23:52;22.60;71.60
43651;DHT22;29247;50.944;5.382;2022-08-03T00:26:20;22.60;71.70
43651;DHT22;29247;50.944;5.382;2022-08-03T00:28:46;22.60;71.80
43651;DHT22;29247;50.944;5.382;2022-08-03T00:31:14;22.50;71.90
43651;DHT22;29247;50.944;5.382;2022-08-03T00:33:44;22.50;71.80
43651;DHT22;29247;50.944;5.382;2022-08-03T00:36:12;22.50;71.60
43651;DHT22;29247;50.944;5.382;2022-08-03T00:38:42;22.40;71.80
43651;DHT22;29247;50.944;5.382;2022-08-03T00:41:07;22.40;72.10
43651;DHT22;29247;50.944;5.382;2022-08-03T00:43:33;22.30;72.30
43651;DHT22;29247;50.944;5.382;2022-08-03T00:45:59;22.30;72.00
43651;DHT22;29247;50.944;5.382;2022-08-03T00:48:27;22.30;72.10
43651;DHT22;29247;50.944;5.382;2022-08-03T00:50:55;22.20;72.40
43651;DHT22;29247;50.944;5.382;2022-08-03T00:53:21;22.20;72.60
43651;DHT22;29247;50.944;5.382;2022-08-03T00:55:47;22.20;72.90
43651;DHT22;29247;50.944;5.382;2022-08-03T00:58:15;22.20;73.10
43651;DHT22;29247;50.944;5.382;2022-08-03T01:00:41;22.20;73.20
43651;DHT22;29247;50.944;5.382;2022-08-03T01:03:08;22.20;73.30
43651;DHT22;29247;50.944;5.382;2022-08-03T01:11:48;22.10;73.30
43651;DHT22;29247;50.944;5.382;2022-08-03T01:14:48;22.10;73.40
43651;DHT22;29247;50.944;5.382;2022-08-03T01:17:15;22.10;73.70
43651;DHT22;29247;50.944;5.382;2022-08-03T01:20:00;22.10;73.80
43651;DHT22;29247;50.944;5.382;2022-08-03T01:25:27;22.10;74.00
43651;DHT22;29247;50.944;5.382;2022-08-03T01:30:31;22.00;73.90
43651;DHT22;29247;50.944;5.382;2022-08-03T01:33:02;21.90;73.80
43651;DHT22;29247;50.944;5.382;2022-08-03T01:35:35;21.90;74.00
43651;DHT22;29247;50.944;5.382;2022-08-03T01:38:12;21.80;74.20
43651;DHT22;29247;50.944;5.382;2022-08-03T01:40:40;21.80;74.20
43651;DHT22;29247;50.944;5.382;2022-08-03T01:43:08;21.80;74.30
43651;DHT22;29247;50.944;5.382;2022-08-03T01:45:36;21.80;74.30
43651;DHT22;29247;50.944;5.382;2022-08-03T01:48:04;21.80;74.40
43651;DHT22;29247;50.944;5.382;2022-08-03T01:50:31;21.80;74.50
43651;DHT22;29247;50.944;5.382;2022-08-03T01:53:00;21.70;74.30
43651;DHT22;29247;50.944;5.382;2022-08-03T01:55:28;21.70;74.30
43651;DHT22;29247;50.944;5.382;2022-08-03T01:57:57;21.70;74.30
43651;DHT22;29247;50.944;5.382;2022-08-03T02:00:26;21.60;74.30
43651;DHT22;29247;50.944;5.382;2022-08-03T02:02:53;21.70;74.30
43651;DHT22;29247;50.944;5.382;2022-08-03T02:05:20;21.60;74.40
43651;DHT22;29247;50.944;5.382;2022-08-03T02:07:47;21.60;74.70
43651;DHT22;29247;50.944;5.382;2022-08-03T02:10:19;21.60;74.60
43651;DHT22;29247;50.944;5.382;2022-08-03T02:12:48;21.60;74.60
43651;DHT22;29247;50.944;5.382;2022-08-03T02:15:18;21.50;74.60
43651;DHT22;29247;50.944;5.382;2022-08-03T02:17:46;21.50;74.90
43651;DHT22;29247;50.944;5.382;2022-08-03T02:20:12;21.50;74.90
43651;DHT22;29247;50.944;5.382;2022-08-03T02:22:42;21.50;74.90
43651;DHT22;29247;50.944;5.382;2022-08-03T02:25:10;21.50;74.90
43651;DHT22;29247;50.944;5.382;2022-08-03T02:27:44;21.50;74.90
43651;DHT22;29247;50.944;5.382;2022-08-03T02:30:11;21.40;74.90
43651;DHT22;29247;50.944;5.382;2022-08-03T02:32:43;21.40;75.00
43651;DHT22;29247;50.944;5.382;2022-08-03T02:35:16;21.40;75.00
43651;DHT22;29247;50.944;5.382;2022-08-03T02:37:49;21.30;75.10
43651;DHT22;29247;50.944;5.382;2022-08-03T02:40:18;21.30;75.30
43651;DHT22;29247;50.944;5.382;2022-08-03T02:43:08;21.30;75.20
43651;DHT22;29247;50.944;5.382;2022-08-03T02:45:37;21.20;75.30
43651;DHT22;29247;50.944;5.382;2022-08-03T02:48:10;21.20;75.30
43651;DHT22;29247;50.944;5.382;2022-08-03T02:50:37;21.20;76.10
43651;DHT22;29247;50.944;5.382;2022-08-03T02:53:04;21.20;75.30
43651;DHT22;29247;50.944;5.382;2022-08-03T02:55:34;21.20;75.30
43651;DHT22;29247;50.944;5.382;2022-08-03T02:58:01;21.20;75.30
43651;DHT22;29247;50.944;5.382;2022-08-03T03:00:30;21.20;75.30
43651;DHT22;29247;50.944;5.382;2022-08-03T03:03:00;21.10;75.30
43651;DHT22;29247;50.944;5.382;2022-08-03T03:05:27;21.10;75.40
43651;DHT22;29247;50.944;5.382;2022-08-03T03:07:56;21.00;75.50
43651;DHT22;29247;50.944;5.382;2022-08-03T03:10:22;21.10;75.70
43651;DHT22;29247;50.944;5.382;2022-08-03T03:12:55;21.10;75.80
43651;DHT22;29247;50.944;5.382;2022-08-03T03:15:26;21.00;75.90
43651;DHT22;29247;50.944;5.382;2022-08-03T03:17:52;21.00;75.80
43651;DHT22;29247;50.944;5.382;2022-08-03T03:20:20;21.00;75.50
43651;DHT22;29247;50.944;5.382;2022-08-03T03:22:51;21.00;75.50
43651;DHT22;29247;50.944;5.382;2022-08-03T03:25:18;20.90;75.70
43651;DHT22;29247;50.944;5.382;2022-08-03T03:27:45;20.90;76.00
43651;DHT22;29247;50.944;5.382;2022-08-03T03:30:13;20.90;76.10
43651;DHT22;29247;50.944;5.382;2022-08-03T03:32:42;20.90;76.20
43651;DHT22;29247;50.944;5.382;2022-08-03T03:35:12;20.90;76.20
43651;DHT22;29247;50.944;5.382;2022-08-03T03:37:40;20.90;76.10
43651;DHT22;29247;50.944;5.382;2022-08-03T03:40:09;20.90;76.00
43651;DHT22;29247;50.944;5.382;2022-08-03T03:42:35;20.90;75.90
43651;DHT22;29247;50.944;5.382;2022-08-03T03:45:05;20.90;75.90
43651;DHT22;29247;50.944;5.382;2022-08-03T03:47:34;20.90;75.80
43651;DHT22;29247;50.944;5.382;2022-08-03T03:50:03;20.90;75.80
43651;DHT22;29247;50.944;5.382;2022-08-03T03:52:30;20.80;75.40
43651;DHT22;29247;50.944;5.382;2022-08-03T03:54:56;20.70;75.30
43651;DHT22;29247;50.944;5.382;2022-08-03T03:57:22;20.70;75.60
43651;DHT22;29247;50.944;5.382;2022-08-03T03:59:47;20.70;76.60
43651;DHT22;29247;50.944;5.382;2022-08-03T04:02:13;20.60;76.00
43651;DHT22;29247;50.944;5.382;2022-08-03T04:04:39;20.60;76.10
43651;DHT22;29247;50.944;5.382;2022-08-03T04:07:25;20.70;76.30
43651;DHT22;29247;50.944;5.382;2022-08-03T04:10:13;20.60;76.20
43651;DHT22;29247;50.944;5.382;2022-08-03T04:12:59;20.60;76.20
43651;DHT22;29247;50.944;5.382;2022-08-03T04:15:27;20.60;76.20
43651;DHT22;29247;50.944;5.382;2022-08-03T04:17:56;20.60;76.00
43651;DHT22;29247;50.944;5.382;2022-08-03T04:20:27;20.50;76.20
43651;DHT22;29247;50.944;5.382;2022-08-03T04:22:58;20.50;76.30
43651;DHT22;29247;50.944;5.382;2022-08-03T04:25:31;20.50;76.50
43651;DHT22;29247;50.944;5.382;2022-08-03T04:28:01;20.50;76.60
43651;DHT22;29247;50.944;5.382;2022-08-03T04:30:28;20.50;76.60
43651;DHT22;29247;50.944;5.382;2022-08-03T04:32:58;20.50;76.70
43651;DHT22;29247;50.944;5.382;2022-08-03T04:35:24;20.50;76.80
43651;DHT22;29247;50.944;5.382;2022-08-03T04:37:54;20.50;76.90
43651;DHT22;29247;50.944;5.382;2022-08-03T04:40:33;20.50;76.90
43651;DHT22;29247;50.944;5.382;2022-08-03T04:42:59;20.50;76.90
43651;DHT22;29247;50.944;5.382;2022-08-03T04:45:27;20.50;76.90
43651;DHT22;29247;50.944;5.382;2022-08-03T04:47:56;20.50;76.80
43651;DHT22;29247;50.944;5.382;2022-08-03T04:50:24;20.50;76.60
43651;DHT22;29247;50.944;5.382;2022-08-03T04:52:52;20.50;76.80
43651;DHT22;29247;50.944;5.382;2022-08-03T04:55:28;20.50;76.90
43651;DHT22;29247;50.944;5.382;2022-08-03T04:57:55;20.50;77.00
43651;DHT22;29247;50.944;5.382;2022-08-03T05:00:26;20.50;77.00
43651;DHT22;29247;50.944;5.382;2022-08-03T05:02:52;20.50;77.20
43651;DHT22;29247;50.944;5.382;2022-08-03T05:05:23;20.50;77.30
43651;DHT22;29247;50.944;5.382;2022-08-03T05:07:49;20.50;77.40
43651;DHT22;29247;50.944;5.382;2022-08-03T05:10:17;20.50;77.40
43651;DHT22;29247;50.944;5.382;2022-08-03T05:12:44;20.50;77.40
43651;DHT22;29247;50.944;5.382;2022-08-03T05:15:12;20.50;77.50
43651;DHT22;29247;50.944;5.382;2022-08-03T05:17:41;20.50;77.30
43651;DHT22;29247;50.944;5.382;2022-08-03T05:20:10;20.50;77.40
43651;DHT22;29247;50.944;5.382;2022-08-03T05:22:38;20.50;77.60
43651;DHT22;29247;50.944;5.382;2022-08-03T05:25:06;20.60;77.80
43651;DHT22;29247;50.944;5.382;2022-08-03T05:27:37;20.50;77.90
43651;DHT22;29247;50.944;5.382;2022-08-03T05:30:03;20.60;78.00
43651;DHT22;29247;50.944;5.382;2022-08-03T05:32:29;20.60;78.00
43651;DHT22;29247;50.944;5.382;2022-08-03T05:34:57;20.60;78.10
43651;DHT22;29247;50.944;5.382;2022-08-03T05:37:23;20.60;78.10
43651;DHT22;29247;50.944;5.382;2022-08-03T05:40:03;20.60;77.50
43651;DHT22;29247;50.944;5.382;2022-08-03T05:42:29;20.70;78.20
43651;DHT22;29247;50.944;5.382;2022-08-03T05:44:54;20.70;78.20
43651;DHT22;29247;50.944;5.382;2022-08-03T05:47:20;20.70;78.20
43651;DHT22;29247;50.944;5.382;2022-08-03T05:49:48;20.70;78.10
43651;DHT22;29247;50.944;5.382;2022-08-03T05:52:16;20.80;78.10
43651;DHT22;29247;50.944;5.382;2022-08-03T05:54:41;20.80;78.00
43651;DHT22;29247;50.944;5.382;2022-08-03T05:57:08;20.80;78.00
43651;DHT22;29247;50.944;5.382;2022-08-03T05:59:37;20.80;77.90
43651;DHT22;29247;50.944;5.382;2022-08-03T06:02:03;20.90;77.90
43651;DHT22;29247;50.944;5.382;2022-08-03T06:04:28;20.90;77.90
43651;DHT22;29247;50.944;5.382;2022-08-03T06:06:54;20.90;77.90
43651;DHT22;29247;50.944;5.382;2022-08-03T06:09:22;21.00;77.90
43651;DHT22;29247;50.944;5.382;2022-08-03T06:11:52;21.00;77.90
43651;DHT22;29247;50.944;5.382;2022-08-03T06:14:18;21.00;77.70
43651;DHT22;29247;50.944;5.382;2022-08-03T06:16:43;21.00;77.80
43651;DHT22;29247;50.944;5.382;2022-08-03T06:19:14;21.10;78.10
43651;DHT22;29247;50.944;5.382;2022-08-03T06:21:39;21.10;78.20
43651;DHT22;29247;50.944;5.382;2022-08-03T06:24:05;21.10;77.90
43651;DHT22;29247;50.944;5.382;2022-08-03T06:26:33;21.20;78.10
43651;DHT22;29247;50.944;5.382;2022-08-03T06:29:00;21.20;78.30
43651;DHT22;29247;50.944;5.382;2022-08-03T06:31:26;21.20;78.30
43651;DHT22;29247;50.944;5.382;2022-08-03T06:33:53;21.30;78.20
43651;DHT22;29247;50.944;5.382;2022-08-03T06:36:19;21.30;78.10
43651;DHT22;29247;50.944;5.382;2022-08-03T06:38:45;21.30;78.10
43651;DHT22;29247;50.944;5.382;2022-08-03T06:41:11;21.40;78.20
43651;DHT22;29247;50.944;5.382;2022-08-03T06:43:38;21.40;78.10
43651;DHT22;29247;50.944;5.382;2022-08-03T06:46:05;21.50;78.00
43651;DHT22;29247;50.944;5.382;2022-08-03T06:48:30;21.60;78.00
43651;DHT22;29247;50.944;5.382;2022-08-03T06:50:56;21.60;77.90
43651;DHT22;29247;50.944;5.382;2022-08-03T06:53:24;21.70;78.00
43651;DHT22;29247;50.944;5.382;2022-08-03T06:55:52;21.70;77.80
43651;DHT22;29247;50.944;5.382;2022-08-03T06:58:21;21.80;77.70
43651;DHT22;29247;50.944;5.382;2022-08-03T07:00:49;21.80;77.60
43651;DHT22;29247;50.944;5.382;2022-08-03T07:03:15;21.90;77.60
43651;DHT22;29247;50.944;5.382;2022-08-03T07:05:41;22.00;77.60
43651;DHT22;29247;50.944;5.382;2022-08-03T07:08:13;22.00;77.30
43651;DHT22;29247;50.944;5.382;2022-08-03T07:10:39;22.10;77.00
43651;DHT22;29247;50.944;5.382;2022-08-03T07:13:07;22.20;76.60
43651;DHT22;29247;50.944;5.382;2022-08-03T07:15:38;22.30;76.30
43651;DHT22;29247;50.944;5.382;2022-08-03T07:18:04;22.40;76.00
43651;DHT22;29247;50.944;5.382;2022-08-03T07:20:31;22.50;75.70
43651;DHT22;29247;50.944;5.382;2022-08-03T07:22:56;22.60;75.30
43651;DHT22;29247;50.944;5.382;2022-08-03T07:25:22;22.80;75.00
43651;DHT22;29247;50.944;5.382;2022-08-03T07:27:50;23.20;75.10
43651;DHT22;29247;50.944;5.382;2022-08-03T07:30:19;23.70;73.90
43651;DHT22;29247;50.944;5.382;2022-08-03T07:32:44;24.10;72.30
43651;DHT22;29247;50.944;5.382;2022-08-03T07:35:10;24.60;70.40
43651;DHT22;29247;50.944;5.382;2022-08-03T07:37:38;25.20;69.00
43651;DHT22;29247;50.944;5.382;2022-08-03T07:40:06;25.80;66.50
43651;DHT22;29247;50.944;5.382;2022-08-03T07:42:33;26.50;64.40
43651;DHT22;29247;50.944;5.382;2022-08-03T07:44:58;27.10;62.50
43651;DHT22;29247;50.944;5.382;2022-08-03T07:47:26;27.60;60.50
43651;DHT22;29247;50.944;5.382;2022-08-03T07:49:55;28.00;58.70
43651;DHT22;29247;50.944;5.382;2022-08-03T07:52:26;28.30;57.50
43651;DHT22;29247;50.944;5.382;2022-08-03T07:55:12;28.50;56.20
43651;DHT22;29247;50.944;5.382;2022-08-03T07:57:39;28.70;55.50
43651;DHT22;29247;50.944;5.382;2022-08-03T08:00:12;28.70;55.20
43651;DHT22;29247;50.944;5.382;2022-08-03T08:02:39;28.60;54.50
43651;DHT22;29247;50.944;5.382;2022-08-03T08:05:05;28.60;54.30
43651;DHT22;29247;50.944;5.382;2022-08-03T08:07:40;28.50;54.00
43651;DHT22;29247;50.944;5.382;2022-08-03T08:10:07;28.40;53.70
43651;DHT22;29247;50.944;5.382;2022-08-03T08:12:37;28.30;53.60
43651;DHT22;29247;50.944;5.382;2022-08-03T08:15:04;28.20;53.60
43651;DHT22;29247;50.944;5.382;2022-08-03T08:17:30;28.10;53.70
43651;DHT22;29247;50.944;5.382;2022-08-03T08:19:55;28.00;53.60
43651;DHT22;29247;50.944;5.382;2022-08-03T08:22:24;27.90;53.60
43651;DHT22;29247;50.944;5.382;2022-08-03T08:24:52;27.80;53.70
43651;DHT22;29247;50.944;5.382;2022-08-03T08:27:24;27.70;53.90
43651;DHT22;29247;50.944;5.382;2022-08-03T08:29:50;27.70;53.70
43651;DHT22;29247;50.944;5.382;2022-08-03T08:32:16;27.60;54.00
43651;DHT22;29247;50.944;5.382;2022-08-03T08:34:41;27.50;54.10
43651;DHT22;29247;50.944;5.382;2022-08-03T08:37:07;27.40;54.20
43651;DHT22;29247;50.944;5.382;2022-08-03T08:39:35;27.40;54.30
43651;DHT22;29247;50.944;5.382;2022-08-03T08:42:04;27.30;54.40
43651;DHT22;29247;50.944;5.382;2022-08-03T08:44:29;27.30;54.50
43651;DHT22;29247;50.944;5.382;2022-08-03T08:47:01;27.30;54.40
43651;DHT22;29247;50.944;5.382;2022-08-03T08:49:34;27.30;54.60
43651;DHT22;29247;50.944;5.382;2022-08-03T08:52:00;27.30;54.50
43651;DHT22;29247;50.944;5.382;2022-08-03T08:54:28;27.30;54.70
43651;DHT22;29247;50.944;5.382;2022-08-03T08:57:01;27.20;54.70
43651;DHT22;29247;50.944;5.382;2022-08-03T08:59:28;27.20;54.90
43651;DHT22;29247;50.944;5.382;2022-08-03T09:01:56;27.20;55.00
43651;DHT22;29247;50.944;5.382;2022-08-03T09:04:23;27.20;55.00
43651;DHT22;29247;50.944;5.382;2022-08-03T09:06:49;27.20;55.20
43651;DHT22;29247;50.944;5.382;2022-08-03T09:09:17;27.30;55.00
43651;DHT22;29247;50.944;5.382;2022-08-03T09:11:43;27.30;54.80
43651;DHT22;29247;50.944;5.382;2022-08-03T09:14:11;27.30;54.70
43651;DHT22;29247;50.944;5.382;2022-08-03T09:16:36;27.30;54.90
43651;DHT22;29247;50.944;5.382;2022-08-03T09:19:15;27.30;55.10
43651;DHT22;29247;50.944;5.382;2022-08-03T09:21:41;27.40;54.90
43651;DHT22;29247;50.944;5.382;2022-08-03T09:24:07;27.40;54.80
43651;DHT22;29247;50.944;5.382;2022-08-03T09:26:35;27.40;55.00
43651;DHT22;29247;50.944;5.382;2022-08-03T09:29:09;27.40;55.00
43651;DHT22;29247;50.944;5.382;2022-08-03T09:31:42;27.50;54.90
43651;DHT22;29247;50.944;5.382;2022-08-03T09:34:12;27.50;54.70
43651;DHT22;29247;50.944;5.382;2022-08-03T09:36:49;27.50;55.00
43651;DHT22;29247;50.944;5.382;2022-08-03T09:39:20;27.60;55.10
43651;DHT22;29247;50.944;5.382;2022-08-03T09:42:04;27.60;55.00
43651;DHT22;29247;50.944;5.382;2022-08-03T09:44:39;27.60;54.60
43651;DHT22;29247;50.944;5.382;2022-08-03T09:47:11;27.70;54.60
43651;DHT22;29247;50.944;5.382;2022-08-03T09:49:55;27.70;54.10
43651;DHT22;29247;50.944;5.382;2022-08-03T09:52:35;27.80;53.70
43651;DHT22;29247;50.944;5.382;2022-08-03T09:55:11;27.80;53.80
43651;DHT22;29247;50.944;5.382;2022-08-03T09:57:38;27.90;53.50
43651;DHT22;29247;50.944;5.382;2022-08-03T10:00:12;27.90;53.50
43651;DHT22;29247;50.944;5.382;2022-08-03T10:02:42;27.90;53.50
43651;DHT22;29247;50.944;5.382;2022-08-03T10:05:09;27.90;53.00
43651;DHT22;29247;50.944;5.382;2022-08-03T10:07:46;28.00;53.20
43651;DHT22;29247;50.944;5.382;2022-08-03T10:10:13;28.10;53.50
43651;DHT22;29247;50.944;5.382;2022-08-03T10:12:40;28.10;52.70
43651;DHT22;29247;50.944;5.382;2022-08-03T10:15:08;28.10;52.40
43651;DHT22;29247;50.944;5.382;2022-08-03T10:17:35;28.20;52.40
43651;DHT22;29247;50.944;5.382;2022-08-03T10:20:00;28.20;52.00
43651;DHT22;29247;50.944;5.382;2022-08-03T10:22:33;28.20;51.60
43651;DHT22;29247;50.944;5.382;2022-08-03T10:25:17;28.30;51.60
43651;DHT22;29247;50.944;5.382;2022-08-03T10:27:46;28.30;52.70
43651;DHT22;29247;50.944;5.382;2022-08-03T10:30:15;28.40;52.70
43651;DHT22;29247;50.944;5.382;2022-08-03T10:32:54;28.50;52.50
43651;DHT22;29247;50.944;5.382;2022-08-03T10:35:24;28.50;52.20
43651;DHT22;29247;50.944;5.382;2022-08-03T10:40:21;28.60;51.40
43651;DHT22;29247;50.944;5.382;2022-08-03T10:42:49;28.60;50.90
43651;DHT22;29247;50.944;5.382;2022-08-03T10:45:20;28.70;50.90
43651;DHT22;29247;50.944;5.382;2022-08-03T10:47:47;28.70;50.90
43651;DHT22;29247;50.944;5.382;2022-08-03T10:50:20;28.80;51.60
43651;DHT22;29247;50.944;5.382;2022-08-03T10:53:01;28.80;50.60
43651;DHT22;29247;50.944;5.382;2022-08-03T10:55:41;28.80;50.50
43651;DHT22;29247;50.944;5.382;2022-08-03T10:58:46;28.90;50.50
43651;DHT22;29247;50.944;5.382;2022-08-03T11:01:14;28.90;50.50
43651;DHT22;29247;50.944;5.382;2022-08-03T11:06:33;29.00;50.70
43651;DHT22;29247;50.944;5.382;2022-08-03T11:09:18;29.00;50.60
43651;DHT22;29247;50.944;5.382;2022-08-03T11:11:45;29.10;50.80
43651;DHT22;29247;50.944;5.382;2022-08-03T11:14:20;29.10;50.80
43651;DHT22;29247;50.944;5.382;2022-08-03T11:17:04;29.10;50.90
43651;DHT22;29247;50.944;5.382;2022-08-03T11:19:46;29.20;50.50
43651;DHT22;29247;50.944;5.382;2022-08-03T11:22:13;29.20;50.40
43651;DHT22;29247;50.944;5.382;2022-08-03T11:35:13;29.40;48.90
43651;DHT22;29247;50.944;5.382;2022-08-03T11:40:45;29.50;50.00
43651;DHT22;29247;50.944;5.382;2022-08-03T11:46:09;29.50;49.30
43651;DHT22;29247;50.944;5.382;2022-08-03T11:48:49;29.60;50.10
43651;DHT22;29247;50.944;5.382;2022-08-03T11:51:27;29.60;49.90
43651;DHT22;29247;50.944;5.382;2022-08-03T11:54:01;29.70;49.90
43651;DHT22;29247;50.944;5.382;2022-08-03T11:56:28;29.70;49.60
43651;DHT22;29247;50.944;5.382;2022-08-03T11:59:07;29.80;49.30
43651;DHT22;29247;50.944;5.382;2022-08-03T12:01:33;29.80;49.30
43651;DHT22;29247;50.944;5.382;2022-08-03T12:04:03;29.80;49.10
43651;DHT22;29247;50.944;5.382;2022-08-03T12:06:31;29.90;49.60
43651;DHT22;29247;50.944;5.382;2022-08-03T12:09:19;29.90;49.00
43651;DHT22;29247;50.944;5.382;2022-08-03T12:11:49;30.00;49.60
43651;DHT22;29247;50.944;5.382;2022-08-03T12:14:22;30.00;49.20
43651;DHT22;29247;50.944;5.382;2022-08-03T12:16:48;30.00;49.20
43651;DHT22;29247;50.944;5.382;2022-08-03T12:19:14;30.10;49.50
43651;DHT22;29247;50.944;5.382;2022-08-03T12:21:47;30.10;49.80
43651;DHT22;29247;50.944;5.382;2022-08-03T12:24:14;30.10;49.00
43651;DHT22;29247;50.944;5.382;2022-08-03T12:26:47;30.10;48.70
43651;DHT22;29247;50.944;5.382;2022-08-03T12:29:18;30.20;48.60
43651;DHT22;29247;50.944;5.382;2022-08-03T12:31:44;30.20;48.20
43651;DHT22;29247;50.944;5.382;2022-08-03T12:34:09;30.30;47.80
43651;DHT22;29247;50.944;5.382;2022-08-03T12:36:36;30.30;47.40
43651;DHT22;29247;50.944;5.382;2022-08-03T12:39:05;30.30;47.10
43651;DHT22;29247;50.944;5.382;2022-08-03T12:41:38;30.30;47.30
43651;DHT22;29247;50.944;5.382;2022-08-03T12:44:08;30.30;47.80
43651;DHT22;29247;50.944;5.382;2022-08-03T12:46:41;30.40;48.00
43651;DHT22;29247;50.944;5.382;2022-08-03T12:49:12;30.40;47.90
43651;DHT22;29247;50.944;5.382;2022-08-03T12:54:14;30.50;47.60
43651;DHT22;29247;50.944;5.382;2022-08-03T12:59:34;30.50;47.00
43651;DHT22;29247;50.944;5.382;2022-08-03T13:02:03;30.50;47.20
43651;DHT22;29247;50.944;5.382;2022-08-03T13:04:33;30.60;47.70
43651;DHT22;29247;50.944;5.382;2022-08-03T13:07:09;30.70;47.20
43651;DHT22;29247;50.944;5.382;2022-08-03T13:12:19;30.80;46.80
43651;DHT22;29247;50.944;5.382;2022-08-03T13:14:47;30.80;46.90
43651;DHT22;29247;50.944;5.382;2022-08-03T13:17:13;30.90;45.60
43651;DHT22;29247;50.944;5.382;2022-08-03T13:19:41;30.90;45.80
43651;DHT22;29247;50.944;5.382;2022-08-03T13:22:23;31.00;46.40
43651;DHT22;29247;50.944;5.382;2022-08-03T13:24:51;31.00;46.00
43651;DHT22;29247;50.944;5.382;2022-08-03T13:27:17;31.10;45.80
43651;DHT22;29247;50.944;5.382;2022-08-03T13:29:43;31.10;45.00
43651;DHT22;29247;50.944;5.382;2022-08-03T13:32:09;31.10;44.90
43651;DHT22;29247;50.944;5.382;2022-08-03T13:34:36;31.10;45.00
43651;DHT22;29247;50.944;5.382;2022-08-03T13:37:07;31.10;45.10
43651;DHT22;29247;50.944;5.382;2022-08-03T13:39:32;31.10;45.70
43651;DHT22;29247;50.944;5.382;2022-08-03T13:41:58;31.10;45.90
43651;DHT22;29247;50.944;5.382;2022-08-03T13:44:26;31.20;45.80
43651;DHT22;29247;50.944;5.382;2022-08-03T13:46:54;31.20;45.20
43651;DHT22;29247;50.944;5.382;2022-08-03T13:49:20;31.30;44.90
43651;DHT22;29247;50.944;5.382;2022-08-03T13:51:45;31.30;44.70
43651;DHT22;29247;50.944;5.382;2022-08-03T13:54:11;31.30;44.50
43651;DHT22;29247;50.944;5.382;2022-08-03T13:56:42;31.30;44.10
43651;DHT22;29247;50.944;5.382;2022-08-03T13:59:14;31.40;44.20
43651;DHT22;29247;50.944;5.382;2022-08-03T14:01:40;31.50;43.80
43651;DHT22;29247;50.944;5.382;2022-08-03T14:04:08;31.50;43.70
43651;DHT22;29247;50.944;5.382;2022-08-03T14:06:36;31.50;44.30
43651;DHT22;29247;50.944;5.382;2022-08-03T14:09:02;31.60;44.90
43651;DHT22;29247;50.944;5.382;2022-08-03T14:11:28;31.60;44.60
43651;DHT22;29247;50.944;5.382;2022-08-03T14:13:53;31.70;43.70
43651;DHT22;29247;50.944;5.382;2022-08-03T14:16:20;31.70;43.10
43651;DHT22;29247;50.944;5.382;2022-08-03T14:18:48;31.60;43.00
43651;DHT22;29247;50.944;5.382;2022-08-03T14:21:13;31.60;42.80
43651;DHT22;29247;50.944;5.382;2022-08-03T14:23:46;31.60;42.90
43651;DHT22;29247;50.944;5.382;2022-08-03T14:26:12;31.60;42.50
43651;DHT22;29247;50.944;5.382;2022-08-03T14:28:42;31.60;42.70
43651;DHT22;29247;50.944;5.382;2022-08-03T14:31:08;31.60;42.60
43651;DHT22;29247;50.944;5.382;2022-08-03T14:33:37;31.70;42.40
43651;DHT22;29247;50.944;5.382;2022-08-03T14:36:06;31.70;42.50
43651;DHT22;29247;50.944;5.382;2022-08-03T14:38:31;31.70;42.80
43651;DHT22;29247;50.944;5.382;2022-08-03T14:40:59;31.70;42.80
43651;DHT22;29247;50.944;5.382;2022-08-03T14:43:25;31.70;42.80
43651;DHT22;29247;50.944;5.382;2022-08-03T14:45:53;31.70;42.60
43651;DHT22;29247;50.944;5.382;2022-08-03T14:48:22;31.60;43.40
43651;DHT22;29247;50.944;5.382;2022-08-03T14:50:52;31.60;43.20
43651;DHT22;29247;50.944;5.382;2022-08-03T14:53:21;31.60;43.30
43651;DHT22;29247;50.944;5.382;2022-08-03T14:55:47;31.50;43.30
43651;DHT22;29247;50.944;5.382;2022-08-03T14:58:14;31.50;44.00
43651;DHT22;29247;50.944;5.382;2022-08-03T15:00:40;31.40;44.30
43651;DHT22;29247;50.944;5.382;2022-08-03T15:03:06;31.40;44.50
43651;DHT22;29247;50.944;5.382;2022-08-03T15:05:32;31.40;44.50
43651;DHT22;29247;50.944;5.382;2022-08-03T15:07:57;31.40;44.30
43651;DHT22;29247;50.944;5.382;2022-08-03T15:10:25;31.30;43.90
43651;DHT22;29247;50.944;5.382;2022-08-03T15:12:53;31.30;43.70
43651;DHT22;29247;50.944;5.382;2022-08-03T15:15:19;31.30;43.70
43651;DHT22;29247;50.944;5.382;2022-08-03T15:17:48;31.30;43.70
43651;DHT22;29247;50.944;5.382;2022-08-03T15:20:13;31.30;43.70
43651;DHT22;29247;50.944;5.382;2022-08-03T15:22:39;31.40;43.70
43651;DHT22;29247;50.944;5.382;2022-08-03T15:25:08;31.40;43.70
43651;DHT22;29247;50.944;5.382;2022-08-03T15:27:36;31.40;43.40
43651;DHT22;29247;50.944;5.382;2022-08-03T15:30:05;31.40;43.40
43651;DHT22;29247;50.944;5.382;2022-08-03T15:32:32;31.50;43.30
43651;DHT22;29247;50.944;5.382;2022-08-03T15:34:58;31.50;43.40
43651;DHT22;29247;50.944;5.382;2022-08-03T15:37:27;31.50;43.20
43651;DHT22;29247;50.944;5.382;2022-08-03T15:39:55;31.50;43.30
43651;DHT22;29247;50.944;5.382;2022-08-03T15:42:23;31.50;43.40
43651;DHT22;29247;50.944;5.382;2022-08-03T15:44:52;31.60;43.20
43651;DHT22;29247;50.944;5.382;2022-08-03T15:47:17;31.60;43.30
43651;DHT22;29247;50.944;5.382;2022-08-03T15:49:45;31.60;43.00
43651;DHT22;29247;50.944;5.382;2022-08-03T15:52:11;31.50;43.00
43651;DHT22;29247;50.944;5.382;2022-08-03T15:54:37;31.50;43.50
43651;DHT22;29247;50.944;5.382;2022-08-03T15:57:03;31.60;43.80
43651;DHT22;29247;50.944;5.382;2022-08-03T15:59:31;31.50;43.70
43651;DHT22;29247;50.944;5.382;2022-08-03T16:01:57;31.50;44.00
43651;DHT22;29247;50.944;5.382;2022-08-03T16:04:23;31.50;43.80
43651;DHT22;29247;50.944;5.382;2022-08-03T16:06:51;31.50;43.70
43651;DHT22;29247;50.944;5.382;2022-08-03T16:09:22;31.50;43.80
43651;DHT22;29247;50.944;5.382;2022-08-03T16:11:47;31.50;43.90
43651;DHT22;29247;50.944;5.382;2022-08-03T16:14:15;31.50;43.70
43651;DHT22;29247;50.944;5.382;2022-08-03T16:16:45;31.50;43.30
43651;DHT22;29247;50.944;5.382;2022-08-03T16:19:13;31.50;42.70
43651;DHT22;29247;50.944;5.382;2022-08-03T16:21:39;31.50;42.60
43651;DHT22;29247;50.944;5.382;2022-08-03T16:24:07;31.50;42.70